sensor_id;sensor_type;location;lat;lon;timestamp;P1;durP1;ratioP1;P2;durP2;ratioP2
12118;SDS011;6123;48.864;9.200;2023-04-08T00:00:11;11.32;;;10.32;;
12118;SDS011;6123;48.864;9.200;2023-04-08T00:02:37;10.43;;;9.43;;
12118;SDS011;6123;48.864;9.200;2023-04-08T00:05:03;11.25;;;10.30;;
12118;SDS011;6123;48.864;9.200;2023-04-08T00:07:29;10.93;;;10.02;;
12118;SDS011;6123;48.864;9.200;2023-04-08T00:09:54;10.50;;;9.50;;
12118;SDS011;6123;48.864;9.200;2023-04-08T00:12:20;11.48;;;10.45;;
12118;SDS011;6123;48.864;9.200;2023-04-08T00:14:48;10.35;;;9.45;;
12118;SDS011;6123;48.864;9.200;2023-04-08T00:17:16;11.20;;;10.30;;
12118;SDS011;6123;48.864;9.200;2023-04-08T00:19:42;11.23;;;10.32;;
12118;SDS011;6123;48.864;9.200;2023-04-08T00:22:10;11.30;;;10.40;;
12118;SDS011;6123;48.864;9.200;2023-04-08T00:24:36;12.00;;;10.90;;
12118;SDS011;6123;48.864;9.200;2023-04-08T00:27:01;12.25;;;11.25;;
12118;SDS011;6123;48.864;9.200;2023-04-08T00:29:27;11.30;;;10.30;;
12118;SDS011;6123;48.864;9.200;2023-04-08T00:31:53;11.80;;;10.80;;
12118;SDS011;6123;48.864;9.200;2023-04-08T00:34:21;10.82;;;9.82;;
12118;SDS011;6123;48.864;9.200;2023-04-08T00:36:47;11.40;;;10.40;;
12118;SDS011;6123;48.864;9.200;2023-04-08T00:39:15;11.35;;;10.38;;
12118;SDS011;6123;48.864;9.200;2023-04-08T00:41:42;12.05;;;11.05;;
12118;SDS011;6123;48.864;9.200;2023-04-08T00:44:08;12.35;;;11.35;;
12118;SDS011;6123;48.864;9.200;2023-04-08T00:46:35;12.13;;;11.02;;
12118;SDS011;6123;48.864;9.200;2023-04-08T00:49:03;12.85;;;11.75;;
12118;SDS011;6123;48.864;9.200;2023-04-08T00:51:31;12.40;;;11.30;;
12118;SDS011;6123;48.864;9.200;2023-04-08T00:54:00;12.82;;;11.63;;
12118;SDS011;6123;48.864;9.200;2023-04-08T00:56:28;12.35;;;11.35;;
12118;SDS011;6123;48.864;9.200;2023-04-08T00:58:55;12.25;;;11.25;;
12118;SDS011;6123;48.864;9.200;2023-04-08T01:01:25;11.35;;;10.35;;
12118;SDS011;6123;48.864;9.200;2023-04-08T01:06:51;12.07;;;11.00;;
12118;SDS011;6123;48.864;9.200;2023-04-08T01:09:27;11.65;;;10.65;;
12118;SDS011;6123;48.864;9.200;2023-04-08T01:11:58;12.00;;;10.98;;
12118;SDS011;6123;48.864;9.200;2023-04-08T01:14:31;11.95;;;10.95;;
12118;SDS011;6123;48.864;9.200;2023-04-08T01:17:03;11.63;;;10.63;;
12118;SDS011;6123;48.864;9.200;2023-04-08T01:19:30;11.93;;;10.82;;
12118;SDS011;6123;48.864;9.200;2023-04-08T01:22:11;11.93;;;10.93;;
12118;SDS011;6123;48.864;9.200;2023-04-08T01:25:00;12.63;;;11.48;;
12118;SDS011;6123;48.864;9.200;2023-04-08T01:27:31;12.35;;;11.35;;
12118;SDS011;6123;48.864;9.200;2023-04-08T01:29:58;12.70;;;11.63;;
12118;SDS011;6123;48.864;9.200;2023-04-08T01:32:26;11.45;;;10.52;;
12118;SDS011;6123;48.864;9.200;2023-04-08T01:34:55;12.35;;;11.35;;
12118;SDS011;6123;48.864;9.200;2023-04-08T01:37:25;12.18;;;11.07;;
12118;SDS011;6123;48.864;9.200;2023-04-08T01:39:53;11.85;;;10.85;;
12118;SDS011;6123;48.864;9.200;2023-04-08T01:42:23;11.93;;;10.82;;
12118;SDS011;6123;48.864;9.200;2023-04-08T01:44:56;11.50;;;10.50;;
12118;SDS011;6123;48.864;9.200;2023-04-08T01:47:23;9.77;;;8.98;;
12118;SDS011;6123;48.864;9.200;2023-04-08T01:49:52;11.40;;;10.50;;
12118;SDS011;6123;48.864;9.200;2023-04-08T01:52:19;11.27;;;10.38;;
12118;SDS011;6123;48.864;9.200;2023-04-08T01:54:47;11.23;;;10.32;;
12118;SDS011;6123;48.864;9.200;2023-04-08T01:57:23;12.60;;;11.60;;
12118;SDS011;6123;48.864;9.200;2023-04-08T01:59:51;10.75;;;9.85;;
12118;SDS011;6123;48.864;9.200;2023-04-08T02:02:23;10.60;;;9.70;;
12118;SDS011;6123;48.864;9.200;2023-04-08T02:04:50;11.98;;;10.98;;
12118;SDS011;6123;48.864;9.200;2023-04-08T02:07:18;12.20;;;11.15;;
12118;SDS011;6123;48.864;9.200;2023-04-08T02:09:44;13.05;;;11.95;;
12118;SDS011;6123;48.864;9.200;2023-04-08T02:12:10;12.23;;;11.23;;
12118;SDS011;6123;48.864;9.200;2023-04-08T02:14:39;13.13;;;12.02;;
12118;SDS011;6123;48.864;9.200;2023-04-08T02:19:39;16.15;;;14.55;;
12118;SDS011;6123;48.864;9.200;2023-04-08T02:22:11;13.70;;;12.60;;
12118;SDS011;6123;48.864;9.200;2023-04-08T02:24:43;13.35;;;12.13;;
12118;SDS011;6123;48.864;9.200;2023-04-08T02:27:10;13.65;;;12.45;;
12118;SDS011;6123;48.864;9.200;2023-04-08T02:29:37;15.07;;;13.77;;
12118;SDS011;6123;48.864;9.200;2023-04-08T02:32:05;14.13;;;12.88;;
12118;SDS011;6123;48.864;9.200;2023-04-08T02:34:38;15.10;;;13.70;;
12118;SDS011;6123;48.864;9.200;2023-04-08T02:37:06;14.40;;;13.07;;
12118;SDS011;6123;48.864;9.200;2023-04-08T02:39:32;14.52;;;13.13;;
12118;SDS011;6123;48.864;9.200;2023-04-08T02:42:00;14.77;;;13.35;;
12118;SDS011;6123;48.864;9.200;2023-04-08T02:44:27;14.95;;;13.55;;
12118;SDS011;6123;48.864;9.200;2023-04-08T02:46:53;14.82;;;13.32;;
12118;SDS011;6123;48.864;9.200;2023-04-08T02:49:21;15.45;;;13.90;;
12118;SDS011;6123;48.864;9.200;2023-04-08T02:51:49;14.55;;;13.13;;
12118;SDS011;6123;48.864;9.200;2023-04-08T02:54:14;15.63;;;14.23;;
12118;SDS011;6123;48.864;9.200;2023-04-08T02:56:40;15.57;;;14.10;;
12118;SDS011;6123;48.864;9.200;2023-04-08T02:59:06;16.20;;;14.63;;
12118;SDS011;6123;48.864;9.200;2023-04-08T03:01:33;17.05;;;15.35;;
12118;SDS011;6123;48.864;9.200;2023-04-08T03:03:59;16.33;;;14.73;;
12118;SDS011;6123;48.864;9.200;2023-04-08T03:06:25;15.57;;;13.95;;
12118;SDS011;6123;48.864;9.200;2023-04-08T03:08:50;17.77;;;15.85;;
12118;SDS011;6123;48.864;9.200;2023-04-08T03:11:16;17.13;;;15.38;;
12118;SDS011;6123;48.864;9.200;2023-04-08T03:13:42;15.98;;;14.40;;
12118;SDS011;6123;48.864;9.200;2023-04-08T03:16:07;17.02;;;15.23;;
12118;SDS011;6123;48.864;9.200;2023-04-08T03:18:33;18.02;;;16.15;;
12118;SDS011;6123;48.864;9.200;2023-04-08T03:21:00;20.02;;;17.98;;
12118;SDS011;6123;48.864;9.200;2023-04-08T03:23:27;17.88;;;16.00;;
12118;SDS011;6123;48.864;9.200;2023-04-08T03:25:52;18.08;;;16.20;;
12118;SDS011;6123;48.864;9.200;2023-04-08T03:28:18;19.27;;;16.83;;
12118;SDS011;6123;48.864;9.200;2023-04-08T03:30:48;18.80;;;16.30;;
12118;SDS011;6123;48.864;9.200;2023-04-08T03:33:14;22.20;;;18.42;;
12118;SDS011;6123;48.864;9.200;2023-04-08T03:35:42;17.83;;;15.95;;
12118;SDS011;6123;48.864;9.200;2023-04-08T03:38:07;19.05;;;16.58;;
12118;SDS011;6123;48.864;9.200;2023-04-08T03:40:33;20.10;;;16.95;;
12118;SDS011;6123;48.864;9.200;2023-04-08T03:42:58;20.20;;;17.58;;
12118;SDS011;6123;48.864;9.200;2023-04-08T03:45:24;21.63;;;18.20;;
12118;SDS011;6123;48.864;9.200;2023-04-08T03:47:50;20.63;;;17.50;;
12118;SDS011;6123;48.864;9.200;2023-04-08T03:50:15;20.38;;;18.08;;
12118;SDS011;6123;48.864;9.200;2023-04-08T03:52:41;20.85;;;18.33;;
12118;SDS011;6123;48.864;9.200;2023-04-08T03:55:07;20.50;;;16.55;;
12118;SDS011;6123;48.864;9.200;2023-04-08T03:57:33;23.25;;;18.33;;
12118;SDS011;6123;48.864;9.200;2023-04-08T03:59:58;19.38;;;17.27;;
12118;SDS011;6123;48.864;9.200;2023-04-08T04:02:24;20.10;;;17.23;;
12118;SDS011;6123;48.864;9.200;2023-04-08T04:04:50;21.70;;;17.50;;
12118;SDS011;6123;48.864;9.200;2023-04-08T04:07:15;21.05;;;17.48;;
12118;SDS011;6123;48.864;9.200;2023-04-08T04:09:43;19.67;;;16.35;;
12118;SDS011;6123;48.864;9.200;2023-04-08T04:12:09;20.88;;;17.38;;
12118;SDS011;6123;48.864;9.200;2023-04-08T04:14:34;16.90;;;15.18;;
12118;SDS011;6123;48.864;9.200;2023-04-08T04:17:00;17.30;;;15.40;;
12118;SDS011;6123;48.864;9.200;2023-04-08T04:19:28;16.80;;;15.02;;
12118;SDS011;6123;48.864;9.200;2023-04-08T04:21:55;16.25;;;14.55;;
12118;SDS011;6123;48.864;9.200;2023-04-08T04:24:21;21.58;;;18.45;;
12118;SDS011;6123;48.864;9.200;2023-04-08T04:26:46;21.27;;;18.98;;
12118;SDS011;6123;48.864;9.200;2023-04-08T04:29:12;21.70;;;19.02;;
12118;SDS011;6123;48.864;9.200;2023-04-08T04:31:38;25.08;;;19.92;;
12118;SDS011;6123;48.864;9.200;2023-04-08T04:34:03;23.90;;;21.05;;
12118;SDS011;6123;48.864;9.200;2023-04-08T04:36:29;22.58;;;18.85;;
12118;SDS011;6123;48.864;9.200;2023-04-08T04:38:56;25.58;;;21.75;;
12118;SDS011;6123;48.864;9.200;2023-04-08T04:41:23;26.42;;;21.90;;
12118;SDS011;6123;48.864;9.200;2023-04-08T04:43:49;25.23;;;21.15;;
12118;SDS011;6123;48.864;9.200;2023-04-08T04:46:14;27.20;;;22.63;;
12118;SDS011;6123;48.864;9.200;2023-04-08T04:48:40;27.38;;;22.70;;
12118;SDS011;6123;48.864;9.200;2023-04-08T04:51:08;22.85;;;20.13;;
12118;SDS011;6123;48.864;9.200;2023-04-08T04:53:36;24.58;;;20.80;;
12118;SDS011;6123;48.864;9.200;2023-04-08T04:56:01;26.58;;;22.10;;
12118;SDS011;6123;48.864;9.200;2023-04-08T04:58:27;24.08;;;20.58;;
12118;SDS011;6123;48.864;9.200;2023-04-08T05:00:55;26.48;;;21.92;;
12118;SDS011;6123;48.864;9.200;2023-04-08T05:03:21;26.40;;;22.80;;
12118;SDS011;6123;48.864;9.200;2023-04-08T05:05:51;27.33;;;24.40;;
12118;SDS011;6123;48.864;9.200;2023-04-08T05:08:19;25.67;;;22.30;;
12118;SDS011;6123;48.864;9.200;2023-04-08T05:10:45;26.77;;;22.60;;
12118;SDS011;6123;48.864;9.200;2023-04-08T05:13:11;26.77;;;22.75;;
12118;SDS011;6123;48.864;9.200;2023-04-08T05:15:39;24.17;;;20.73;;
12118;SDS011;6123;48.864;9.200;2023-04-08T05:18:05;20.23;;;18.08;;
12118;SDS011;6123;48.864;9.200;2023-04-08T05:20:33;24.02;;;20.42;;
12118;SDS011;6123;48.864;9.200;2023-04-08T05:22:58;25.23;;;21.48;;
12118;SDS011;6123;48.864;9.200;2023-04-08T05:25:26;24.75;;;21.50;;
12118;SDS011;6123;48.864;9.200;2023-04-08T05:27:54;25.77;;;22.98;;
12118;SDS011;6123;48.864;9.200;2023-04-08T05:30:22;19.30;;;17.33;;
12118;SDS011;6123;48.864;9.200;2023-04-08T05:32:47;20.30;;;18.20;;
12118;SDS011;6123;48.864;9.200;2023-04-08T05:35:13;20.67;;;18.50;;
12118;SDS011;6123;48.864;9.200;2023-04-08T05:37:39;19.88;;;17.88;;
12118;SDS011;6123;48.864;9.200;2023-04-08T05:40:05;24.08;;;21.50;;
12118;SDS011;6123;48.864;9.200;2023-04-08T05:42:31;23.60;;;20.88;;
12118;SDS011;6123;48.864;9.200;2023-04-08T05:44:58;24.42;;;21.42;;
12118;SDS011;6123;48.864;9.200;2023-04-08T05:47:26;23.67;;;20.95;;
12118;SDS011;6123;48.864;9.200;2023-04-08T05:49:52;22.95;;;20.30;;
12118;SDS011;6123;48.864;9.200;2023-04-08T05:52:20;22.38;;;20.08;;
12118;SDS011;6123;48.864;9.200;2023-04-08T05:54:45;23.33;;;20.92;;
12118;SDS011;6123;48.864;9.200;2023-04-08T05:57:11;25.42;;;22.58;;
12118;SDS011;6123;48.864;9.200;2023-04-08T05:59:37;23.98;;;21.38;;
12118;SDS011;6123;48.864;9.200;2023-04-08T06:02:04;20.13;;;18.13;;
12118;SDS011;6123;48.864;9.200;2023-04-08T06:04:31;22.83;;;20.42;;
12118;SDS011;6123;48.864;9.200;2023-04-08T06:07:01;22.65;;;20.33;;
12118;SDS011;6123;48.864;9.200;2023-04-08T06:09:33;24.30;;;21.70;;
12118;SDS011;6123;48.864;9.200;2023-04-08T06:12:00;23.67;;;21.15;;
12118;SDS011;6123;48.864;9.200;2023-04-08T06:14:26;23.23;;;20.77;;
12118;SDS011;6123;48.864;9.200;2023-04-08T06:16:53;18.45;;;16.55;;
12118;SDS011;6123;48.864;9.200;2023-04-08T06:19:21;20.63;;;18.50;;
12118;SDS011;6123;48.864;9.200;2023-04-08T06:21:49;23.48;;;21.17;;
12118;SDS011;6123;48.864;9.200;2023-04-08T06:24:15;24.52;;;21.25;;
12118;SDS011;6123;48.864;9.200;2023-04-08T06:26:43;23.20;;;20.75;;
12118;SDS011;6123;48.864;9.200;2023-04-08T06:29:09;23.02;;;20.58;;
12118;SDS011;6123;48.864;9.200;2023-04-08T06:31:35;23.38;;;21.02;;
12118;SDS011;6123;48.864;9.200;2023-04-08T06:34:00;20.52;;;18.27;;
12118;SDS011;6123;48.864;9.200;2023-04-08T06:36:26;20.80;;;18.80;;
12118;SDS011;6123;48.864;9.200;2023-04-08T06:38:52;20.13;;;17.80;;
12118;SDS011;6123;48.864;9.200;2023-04-08T06:41:17;20.27;;;18.27;;
12118;SDS011;6123;48.864;9.200;2023-04-08T06:43:43;21.13;;;19.02;;
12118;SDS011;6123;48.864;9.200;2023-04-08T06:46:08;20.25;;;18.20;;
12118;SDS011;6123;48.864;9.200;2023-04-08T06:48:35;20.33;;;18.33;;
12118;SDS011;6123;48.864;9.200;2023-04-08T06:51:01;20.77;;;18.77;;
12118;SDS011;6123;48.864;9.200;2023-04-08T06:53:29;20.33;;;18.33;;
12118;SDS011;6123;48.864;9.200;2023-04-08T06:55:57;19.45;;;17.55;;
12118;SDS011;6123;48.864;9.200;2023-04-08T06:58:23;19.25;;;17.45;;
12118;SDS011;6123;48.864;9.200;2023-04-08T07:00:49;20.05;;;18.08;;
12118;SDS011;6123;48.864;9.200;2023-04-08T07:03:16;19.20;;;17.42;;
12118;SDS011;6123;48.864;9.200;2023-04-08T07:05:44;16.98;;;15.48;;
12118;SDS011;6123;48.864;9.200;2023-04-08T07:08:10;19.95;;;18.00;;
12118;SDS011;6123;48.864;9.200;2023-04-08T07:10:35;16.85;;;15.15;;
12118;SDS011;6123;48.864;9.200;2023-04-08T07:13:01;14.60;;;13.30;;
12118;SDS011;6123;48.864;9.200;2023-04-08T07:15:27;14.35;;;13.05;;
12118;SDS011;6123;48.864;9.200;2023-04-08T07:17:52;14.15;;;12.85;;
12118;SDS011;6123;48.864;9.200;2023-04-08T07:20:20;13.65;;;12.35;;
12118;SDS011;6123;48.864;9.200;2023-04-08T07:22:47;13.85;;;12.55;;
12118;SDS011;6123;48.864;9.200;2023-04-08T07:25:12;13.48;;;12.38;;
12118;SDS011;6123;48.864;9.200;2023-04-08T07:27:40;12.52;;;11.43;;
12118;SDS011;6123;48.864;9.200;2023-04-08T07:30:06;12.75;;;11.55;;
12118;SDS011;6123;48.864;9.200;2023-04-08T07:32:32;12.38;;;11.18;;
12118;SDS011;6123;48.864;9.200;2023-04-08T07:34:59;12.70;;;11.55;;
12118;SDS011;6123;48.864;9.200;2023-04-08T07:37:25;11.50;;;10.50;;
12118;SDS011;6123;48.864;9.200;2023-04-08T07:39:54;11.63;;;10.63;;
12118;SDS011;6123;48.864;9.200;2023-04-08T07:42:23;12.23;;;11.02;;
12118;SDS011;6123;48.864;9.200;2023-04-08T07:44:48;13.48;;;12.27;;
12118;SDS011;6123;48.864;9.200;2023-04-08T07:47:14;11.98;;;10.98;;
12118;SDS011;6123;48.864;9.200;2023-04-08T07:49:40;11.98;;;10.98;;
12118;SDS011;6123;48.864;9.200;2023-04-08T07:52:06;11.85;;;10.85;;
12118;SDS011;6123;48.864;9.200;2023-04-08T07:54:34;10.90;;;9.98;;
12118;SDS011;6123;48.864;9.200;2023-04-08T07:56:59;12.05;;;10.75;;
12118;SDS011;6123;48.864;9.200;2023-04-08T07:59:26;11.35;;;10.35;;
12118;SDS011;6123;48.864;9.200;2023-04-08T08:01:52;11.65;;;10.73;;
12118;SDS011;6123;48.864;9.200;2023-04-08T08:04:17;10.57;;;9.68;;
12118;SDS011;6123;48.864;9.200;2023-04-08T08:06:46;10.80;;;9.90;;
12118;SDS011;6123;48.864;9.200;2023-04-08T08:09:14;12.05;;;11.05;;
12118;SDS011;6123;48.864;9.200;2023-04-08T08:11:42;12.18;;;11.15;;
12118;SDS011;6123;48.864;9.200;2023-04-08T08:14:08;11.18;;;10.18;;
12118;SDS011;6123;48.864;9.200;2023-04-08T08:16:35;10.88;;;9.88;;
12118;SDS011;6123;48.864;9.200;2023-04-08T08:19:02;11.25;;;10.30;;
12118;SDS011;6123;48.864;9.200;2023-04-08T08:21:30;11.48;;;10.50;;
12118;SDS011;6123;48.864;9.200;2023-04-08T08:24:00;11.73;;;10.63;;
12118;SDS011;6123;48.864;9.200;2023-04-08T08:26:25;11.35;;;10.45;;
12118;SDS011;6123;48.864;9.200;2023-04-08T08:28:53;10.40;;;9.50;;
12118;SDS011;6123;48.864;9.200;2023-04-08T08:31:19;10.75;;;9.85;;
12118;SDS011;6123;48.864;9.200;2023-04-08T08:33:45;11.52;;;10.60;;
12118;SDS011;6123;48.864;9.200;2023-04-08T08:36:11;11.70;;;10.70;;
12118;SDS011;6123;48.864;9.200;2023-04-08T08:38:37;10.85;;;10.02;;
12118;SDS011;6123;48.864;9.200;2023-04-08T08:41:03;12.48;;;11.38;;
12118;SDS011;6123;48.864;9.200;2023-04-08T08:43:28;12.20;;;11.18;;
12118;SDS011;6123;48.864;9.200;2023-04-08T08:45:57;11.82;;;10.82;;
12118;SDS011;6123;48.864;9.200;2023-04-08T08:48:23;11.48;;;10.50;;
12118;SDS011;6123;48.864;9.200;2023-04-08T08:50:49;11.07;;;10.18;;
12118;SDS011;6123;48.864;9.200;2023-04-08T08:53:17;11.95;;;10.95;;
12118;SDS011;6123;48.864;9.200;2023-04-08T08:55:47;12.70;;;11.55;;
12118;SDS011;6123;48.864;9.200;2023-04-08T08:58:13;11.52;;;10.52;;
12118;SDS011;6123;48.864;9.200;2023-04-08T09:00:41;11.30;;;10.40;;
12118;SDS011;6123;48.864;9.200;2023-04-08T09:05:52;11.52;;;10.52;;
12118;SDS011;6123;48.864;9.200;2023-04-08T09:08:23;11.05;;;10.05;;
12118;SDS011;6123;48.864;9.200;2023-04-08T09:10:49;11.77;;;10.75;;
12118;SDS011;6123;48.864;9.200;2023-04-08T09:13:15;11.27;;;10.38;;
12118;SDS011;6123;48.864;9.200;2023-04-08T09:15:59;11.85;;;10.85;;
12118;SDS011;6123;48.864;9.200;2023-04-08T09:18:27;10.88;;;9.88;;
12118;SDS011;6123;48.864;9.200;2023-04-08T09:20:53;10.77;;;9.88;;
12118;SDS011;6123;48.864;9.200;2023-04-08T09:23:19;10.98;;;9.95;;
12118;SDS011;6123;48.864;9.200;2023-04-08T09:25:44;11.55;;;10.65;;
12118;SDS011;6123;48.864;9.200;2023-04-08T09:28:18;11.38;;;10.45;;
12118;SDS011;6123;48.864;9.200;2023-04-08T09:30:45;11.20;;;10.20;;
12118;SDS011;6123;48.864;9.200;2023-04-08T09:33:11;11.50;;;10.50;;
12118;SDS011;6123;48.864;9.200;2023-04-08T09:35:42;11.30;;;10.40;;
12118;SDS011;6123;48.864;9.200;2023-04-08T09:38:11;11.57;;;10.63;;
12118;SDS011;6123;48.864;9.200;2023-04-08T09:40:36;11.98;;;11.07;;
12118;SDS011;6123;48.864;9.200;2023-04-08T09:43:06;10.77;;;9.88;;
12118;SDS011;6123;48.864;9.200;2023-04-08T09:45:36;11.30;;;10.30;;
12118;SDS011;6123;48.864;9.200;2023-04-08T09:48:11;10.50;;;9.60;;
12118;SDS011;6123;48.864;9.200;2023-04-08T09:50:46;10.75;;;9.95;;
12118;SDS011;6123;48.864;9.200;2023-04-08T09:56:10;11.13;;;10.13;;
12118;SDS011;6123;48.864;9.200;2023-04-08T09:58:58;10.10;;;9.30;;
12118;SDS011;6123;48.864;9.200;2023-04-08T10:01:32;10.18;;;9.23;;
12118;SDS011;6123;48.864;9.200;2023-04-08T10:04:09;10.25;;;9.25;;
12118;SDS011;6123;48.864;9.200;2023-04-08T10:06:42;10.23;;;9.32;;
12118;SDS011;6123;48.864;9.200;2023-04-08T10:09:11;9.23;;;8.35;;
12118;SDS011;6123;48.864;9.200;2023-04-08T10:11:37;9.73;;;8.93;;
12118;SDS011;6123;48.864;9.200;2023-04-08T10:14:03;10.07;;;9.27;;
12118;SDS011;6123;48.864;9.200;2023-04-08T10:16:33;10.63;;;9.65;;
12118;SDS011;6123;48.864;9.200;2023-04-08T10:18:59;10.80;;;9.70;;
12118;SDS011;6123;48.864;9.200;2023-04-08T10:23:59;10.43;;;9.43;;
12118;SDS011;6123;48.864;9.200;2023-04-08T10:26:34;10.60;;;9.70;;
12118;SDS011;6123;48.864;9.200;2023-04-08T10:29:43;10.90;;;9.90;;
12118;SDS011;6123;48.864;9.200;2023-04-08T10:31:50;9.80;;;8.90;;
12118;SDS011;6123;48.864;9.200;2023-04-08T10:34:19;9.43;;;8.63;;
12118;SDS011;6123;48.864;9.200;2023-04-08T10:36:50;9.73;;;8.82;;
12118;SDS011;6123;48.864;9.200;2023-04-08T10:39:16;8.65;;;7.90;;
12118;SDS011;6123;48.864;9.200;2023-04-08T10:44:16;9.40;;;8.60;;
12118;SDS011;6123;48.864;9.200;2023-04-08T10:46:49;10.80;;;9.85;;
12118;SDS011;6123;48.864;9.200;2023-04-08T10:49:16;9.93;;;9.02;;
12118;SDS011;6123;48.864;9.200;2023-04-08T10:51:44;9.43;;;8.65;;
12118;SDS011;6123;48.864;9.200;2023-04-08T10:54:11;9.68;;;8.88;;
12118;SDS011;6123;48.864;9.200;2023-04-08T10:56:45;9.35;;;8.65;;
12118;SDS011;6123;48.864;9.200;2023-04-08T10:59:13;9.27;;;8.50;;
12118;SDS011;6123;48.864;9.200;2023-04-08T11:01:52;9.63;;;8.80;;
12118;SDS011;6123;48.864;9.200;2023-04-08T11:04:17;9.25;;;8.35;;
12118;SDS011;6123;48.864;9.200;2023-04-08T11:06:45;9.88;;;9.07;;
12118;SDS011;6123;48.864;9.200;2023-04-08T11:09:11;8.95;;;8.20;;
12118;SDS011;6123;48.864;9.200;2023-04-08T11:11:40;8.63;;;7.80;;
12118;SDS011;6123;48.864;9.200;2023-04-08T11:14:07;7.75;;;7.05;;
12118;SDS011;6123;48.864;9.200;2023-04-08T11:16:33;7.85;;;7.15;;
12118;SDS011;6123;48.864;9.200;2023-04-08T11:19:00;9.02;;;8.23;;
12118;SDS011;6123;48.864;9.200;2023-04-08T11:21:29;9.20;;;8.40;;
12118;SDS011;6123;48.864;9.200;2023-04-08T11:24:05;8.73;;;8.02;;
12118;SDS011;6123;48.864;9.200;2023-04-08T11:26:33;8.80;;;8.10;;
12118;SDS011;6123;48.864;9.200;2023-04-08T11:29:01;8.02;;;7.32;;
12118;SDS011;6123;48.864;9.200;2023-04-08T11:31:29;8.63;;;7.90;;
12118;SDS011;6123;48.864;9.200;2023-04-08T11:33:56;8.20;;;7.50;;
12118;SDS011;6123;48.864;9.200;2023-04-08T11:36:22;8.60;;;7.90;;
12118;SDS011;6123;48.864;9.200;2023-04-08T11:38:51;8.25;;;7.45;;
12118;SDS011;6123;48.864;9.200;2023-04-08T11:41:18;8.02;;;7.40;;
12118;SDS011;6123;48.864;9.200;2023-04-08T11:43:52;8.45;;;7.72;;
12118;SDS011;6123;48.864;9.200;2023-04-08T11:46:24;7.95;;;7.25;;
12118;SDS011;6123;48.864;9.200;2023-04-08T11:49:06;7.68;;;7.07;;
12118;SDS011;6123;48.864;9.200;2023-04-08T11:51:33;8.35;;;7.68;;
12118;SDS011;6123;48.864;9.200;2023-04-08T11:54:03;7.78;;;7.18;;
12118;SDS011;6123;48.864;9.200;2023-04-08T11:56:31;8.52;;;7.90;;
12118;SDS011;6123;48.864;9.200;2023-04-08T11:59:10;8.13;;;7.53;;
12118;SDS011;6123;48.864;9.200;2023-04-08T12:01:35;8.55;;;7.60;;
12118;SDS011;6123;48.864;9.200;2023-04-08T12:04:01;7.55;;;6.82;;
12118;SDS011;6123;48.864;9.200;2023-04-08T12:06:27;7.40;;;6.80;;
12118;SDS011;6123;48.864;9.200;2023-04-08T12:08:54;8.00;;;7.35;;
12118;SDS011;6123;48.864;9.200;2023-04-08T12:11:20;7.72;;;7.13;;
12118;SDS011;6123;48.864;9.200;2023-04-08T12:13:47;7.57;;;6.97;;
12118;SDS011;6123;48.864;9.200;2023-04-08T12:16:14;7.88;;;7.28;;
12118;SDS011;6123;48.864;9.200;2023-04-08T12:18:40;8.73;;;7.82;;
12118;SDS011;6123;48.864;9.200;2023-04-08T12:21:06;7.78;;;7.25;;
12118;SDS011;6123;48.864;9.200;2023-04-08T12:23:34;8.13;;;7.43;;
12118;SDS011;6123;48.864;9.200;2023-04-08T12:26:00;8.18;;;7.47;;
12118;SDS011;6123;48.864;9.200;2023-04-08T12:28:26;7.85;;;7.20;;
12118;SDS011;6123;48.864;9.200;2023-04-08T12:30:53;7.53;;;6.93;;
12118;SDS011;6123;48.864;9.200;2023-04-08T12:33:19;7.90;;;7.20;;
12118;SDS011;6123;48.864;9.200;2023-04-08T12:35:45;7.78;;;7.18;;
12118;SDS011;6123;48.864;9.200;2023-04-08T12:38:15;8.02;;;7.43;;
12118;SDS011;6123;48.864;9.200;2023-04-08T12:40:41;8.23;;;7.53;;
12118;SDS011;6123;48.864;9.200;2023-04-08T12:43:07;7.88;;;7.22;;
12118;SDS011;6123;48.864;9.200;2023-04-08T12:45:32;8.10;;;7.30;;
12118;SDS011;6123;48.864;9.200;2023-04-08T12:47:58;8.07;;;7.47;;
12118;SDS011;6123;48.864;9.200;2023-04-08T12:50:23;8.00;;;7.30;;
12118;SDS011;6123;48.864;9.200;2023-04-08T12:52:51;7.63;;;7.03;;
12118;SDS011;6123;48.864;9.200;2023-04-08T12:55:16;7.70;;;7.10;;
12118;SDS011;6123;48.864;9.200;2023-04-08T12:57:48;7.85;;;7.22;;
12118;SDS011;6123;48.864;9.200;2023-04-08T13:00:15;8.18;;;7.50;;
12118;SDS011;6123;48.864;9.200;2023-04-08T13:02:40;7.75;;;7.15;;
12118;SDS011;6123;48.864;9.200;2023-04-08T13:05:06;7.97;;;7.30;;
12118;SDS011;6123;48.864;9.200;2023-04-08T13:07:32;8.48;;;7.72;;
12118;SDS011;6123;48.864;9.200;2023-04-08T13:09:58;8.30;;;7.63;;
12118;SDS011;6123;48.864;9.200;2023-04-08T13:12:27;9.07;;;8.15;;
12118;SDS011;6123;48.864;9.200;2023-04-08T13:14:53;8.65;;;7.78;;
12118;SDS011;6123;48.864;9.200;2023-04-08T13:17:22;8.43;;;7.72;;
12118;SDS011;6123;48.864;9.200;2023-04-08T13:19:50;8.93;;;8.10;;
12118;SDS011;6123;48.864;9.200;2023-04-08T13:22:16;7.80;;;7.20;;
12118;SDS011;6123;48.864;9.200;2023-04-08T13:24:42;6.93;;;6.38;;
12118;SDS011;6123;48.864;9.200;2023-04-08T13:27:07;8.55;;;7.85;;
12118;SDS011;6123;48.864;9.200;2023-04-08T13:29:35;8.88;;;8.10;;
12118;SDS011;6123;48.864;9.200;2023-04-08T13:32:01;8.15;;;7.40;;
12118;SDS011;6123;48.864;9.200;2023-04-08T13:34:26;8.77;;;8.07;;
12118;SDS011;6123;48.864;9.200;2023-04-08T13:36:54;8.75;;;7.95;;
12118;SDS011;6123;48.864;9.200;2023-04-08T13:39:20;7.95;;;7.35;;
12118;SDS011;6123;48.864;9.200;2023-04-08T13:41:45;7.60;;;6.97;;
12118;SDS011;6123;48.864;9.200;2023-04-08T13:44:14;7.88;;;7.03;;
12118;SDS011;6123;48.864;9.200;2023-04-08T13:46:41;8.07;;;7.38;;
12118;SDS011;6123;48.864;9.200;2023-04-08T13:49:09;8.20;;;7.50;;
12118;SDS011;6123;48.864;9.200;2023-04-08T13:51:34;8.00;;;7.30;;
12118;SDS011;6123;48.864;9.200;2023-04-08T13:54:00;8.30;;;7.70;;
12118;SDS011;6123;48.864;9.200;2023-04-08T13:56:28;7.88;;;7.18;;
12118;SDS011;6123;48.864;9.200;2023-04-08T13:58:54;7.90;;;7.20;;
12118;SDS011;6123;48.864;9.200;2023-04-08T14:01:20;6.57;;;6.07;;
12118;SDS011;6123;48.864;9.200;2023-04-08T14:03:45;7.78;;;7.10;;
12118;SDS011;6123;48.864;9.200;2023-04-08T14:06:13;7.22;;;6.63;;
12118;SDS011;6123;48.864;9.200;2023-04-08T14:08:39;8.63;;;7.93;;
12118;SDS011;6123;48.864;9.200;2023-04-08T14:11:05;7.68;;;7.07;;
12118;SDS011;6123;48.864;9.200;2023-04-08T14:13:31;7.28;;;6.68;;
12118;SDS011;6123;48.864;9.200;2023-04-08T14:15:59;7.97;;;7.28;;
12118;SDS011;6123;48.864;9.200;2023-04-08T14:18:27;8.07;;;7.38;;
12118;SDS011;6123;48.864;9.200;2023-04-08T14:20:53;8.25;;;7.45;;
12118;SDS011;6123;48.864;9.200;2023-04-08T14:23:18;7.05;;;6.45;;
12118;SDS011;6123;48.864;9.200;2023-04-08T14:25:44;6.82;;;6.32;;
12118;SDS011;6123;48.864;9.200;2023-04-08T14:28:12;6.43;;;5.93;;
12118;SDS011;6123;48.864;9.200;2023-04-08T14:30:37;7.03;;;6.53;;
12118;SDS011;6123;48.864;9.200;2023-04-08T14:33:03;6.47;;;5.97;;
12118;SDS011;6123;48.864;9.200;2023-04-08T14:35:31;6.85;;;6.25;;
12118;SDS011;6123;48.864;9.200;2023-04-08T14:37:56;7.28;;;6.68;;
12118;SDS011;6123;48.864;9.200;2023-04-08T14:40:22;7.45;;;6.68;;
12118;SDS011;6123;48.864;9.200;2023-04-08T14:42:48;6.38;;;5.88;;
12118;SDS011;6123;48.864;9.200;2023-04-08T14:45:14;5.78;;;5.32;;
12118;SDS011;6123;48.864;9.200;2023-04-08T14:47:40;5.18;;;4.70;;
12118;SDS011;6123;48.864;9.200;2023-04-08T14:50:06;5.28;;;4.88;;
12118;SDS011;6123;48.864;9.200;2023-04-08T14:52:34;5.53;;;5.03;;
12118;SDS011;6123;48.864;9.200;2023-04-08T14:55:00;5.50;;;5.10;;
12118;SDS011;6123;48.864;9.200;2023-04-08T14:57:28;5.53;;;5.03;;
12118;SDS011;6123;48.864;9.200;2023-04-08T14:59:54;5.38;;;4.97;;